createdAt,value
2022-10-20T00:01:09.051Z,66.78
2022-10-20T00:03:36.284Z,66.50
2022-10-20T00:06:08.457Z,66.69
2022-10-20T00:08:35.218Z,66.30
2022-10-20T00:11:01.865Z,66.54
2022-10-20T00:13:28.785Z,66.92
2022-10-20T00:15:56.290Z,66.01
2022-10-20T00:18:24.067Z,65.78
2022-10-20T00:20:52.024Z,66.43
2022-10-20T00:23:18.831Z,65.62
2022-10-20T00:25:48.751Z,66.01
2022-10-20T00:28:15.411Z,65.66
2022-10-20T00:30:42.153Z,65.13
2022-10-20T00:33:08.923Z,65.53
2022-10-20T00:35:39.007Z,66.06
2022-10-20T00:38:05.718Z,65.35
2022-10-20T00:40:32.355Z,65.72
2022-10-20T00:42:58.986Z,66.16
2022-10-20T00:45:25.714Z,64.98
2022-10-20T00:48:24.327Z,64.48
2022-10-20T00:50:53.995Z,65.50
2022-10-20T00:53:24.320Z,65.39
2022-10-20T00:55:54.456Z,65.89
2022-10-20T00:58:21.534Z,66.81
2022-10-20T01:00:52.970Z,65.78
2022-10-20T01:03:45.793Z,65.35
2022-10-20T01:06:15.044Z,65.74
2022-10-20T01:08:41.671Z,65.45
2022-10-20T01:11:14.519Z,65.83
2022-10-20T01:13:44.115Z,65.95
2022-10-20T01:16:21.997Z,65.68
2022-10-20T01:19:22.925Z,65.52
2022-10-20T01:22:14.533Z,65.57
2022-10-20T01:25:00.416Z,66.00
2022-10-20T01:27:41.438Z,66.45
2022-10-20T01:30:18.506Z,66.13
2022-10-20T01:32:57.299Z,65.88
2022-10-20T01:35:27.083Z,65.82
2022-10-20T01:38:05.816Z,65.78
2022-10-20T01:40:43.130Z,65.92
2022-10-20T01:43:15.176Z,65.68
2022-10-20T01:45:45.143Z,65.92
2022-10-20T01:48:14.615Z,65.72
2022-10-20T01:50:42.234Z,65.39
2022-10-20T01:53:08.899Z,64.72
2022-10-20T01:55:38.403Z,64.36
2022-10-20T01:58:34.005Z,64.86
2022-10-20T02:01:32.042Z,64.44
2022-10-20T02:04:01.477Z,64.23
2022-10-20T02:06:44.719Z,64.86
2022-10-20T02:09:32.227Z,64.88
2022-10-20T02:12:06.510Z,65.76
2022-10-20T02:14:33.417Z,66.41
2022-10-20T02:17:06.651Z,66.22
2022-10-20T02:19:41.240Z,65.73
2022-10-20T02:22:09.892Z,64.78
2022-10-20T02:24:39.348Z,65.47
2022-10-20T02:27:15.570Z,66.10
2022-10-20T02:29:52.498Z,63.98
2022-10-20T02:32:19.648Z,66.30
2022-10-20T02:34:46.284Z,67.67
2022-10-20T02:37:12.986Z,67.15
2022-10-20T02:39:39.968Z,66.50
2022-10-20T02:42:07.239Z,64.70
2022-10-20T02:44:33.975Z,63.84
2022-10-20T02:47:00.635Z,63.89
2022-10-20T02:49:27.416Z,64.60
2022-10-20T02:51:54.133Z,64.19
2022-10-20T02:54:21.019Z,64.76
2022-10-20T02:56:47.650Z,64.32
2022-10-20T02:59:16.878Z,64.95
2022-10-20T03:01:44.555Z,64.56
2022-10-20T03:04:11.407Z,62.10
2022-10-20T03:06:38.372Z,62.85
2022-10-20T03:09:05.654Z,63.57
2022-10-20T03:11:32.395Z,64.35
2022-10-20T03:13:59.031Z,64.31
2022-10-20T03:16:25.823Z,64.64
2022-10-20T03:18:53.183Z,64.31
2022-10-20T03:21:19.943Z,65.11
2022-10-20T03:23:46.683Z,64.36
2022-10-20T03:26:13.540Z,64.41
2022-10-20T03:28:40.861Z,63.79
2022-10-20T03:31:08.338Z,62.73
2022-10-20T03:33:34.927Z,62.89
2022-10-20T03:36:01.614Z,62.47
2022-10-20T03:38:28.223Z,63.08
2022-10-20T03:40:54.957Z,63.71
2022-10-20T03:43:21.622Z,63.29
2022-10-20T03:45:48.296Z,64.07
2022-10-20T03:48:14.890Z,64.36
2022-10-20T03:50:43.127Z,62.99
2022-10-20T03:53:14.269Z,64.39
2022-10-20T03:55:40.893Z,64.60
2022-10-20T03:58:07.523Z,65.27
2022-10-20T04:00:34.244Z,64.98
2022-10-20T04:03:00.813Z,64.69
2022-10-20T04:05:27.463Z,64.88
2022-10-20T04:07:54.078Z,65.15
2022-10-20T04:10:20.804Z,66.16
2022-10-20T04:12:47.391Z,64.89
2022-10-20T04:15:14.278Z,63.60
2022-10-20T04:17:41.051Z,62.97
2022-10-20T04:20:08.094Z,63.45
2022-10-20T04:22:35.058Z,65.04
2022-10-20T04:25:02.175Z,65.98
2022-10-20T04:27:29.140Z,65.43
2022-10-20T04:29:55.793Z,63.86
2022-10-20T04:32:22.394Z,65.43
2022-10-20T04:34:49.015Z,65.45
2022-10-20T04:37:15.718Z,64.07
2022-10-20T04:39:42.402Z,64.35
2022-10-20T04:42:09.081Z,65.68
2022-10-20T04:44:35.706Z,66.01
2022-10-20T04:47:02.287Z,64.43
2022-10-20T04:49:28.929Z,64.75
2022-10-20T04:52:00.622Z,64.49
2022-10-20T04:54:28.106Z,65.66
2022-10-20T04:56:54.847Z,65.79
2022-10-20T04:59:21.606Z,64.25
2022-10-20T05:01:48.361Z,64.08
2022-10-20T05:04:21.270Z,64.34
2022-10-20T05:06:49.206Z,63.41
2022-10-20T05:09:15.965Z,63.73
2022-10-20T05:11:43.613Z,63.01
2022-10-20T05:14:10.507Z,63.92
2022-10-20T05:16:37.200Z,64.68
2022-10-20T05:19:03.976Z,63.74
2022-10-20T05:21:31.511Z,63.66
2022-10-20T05:24:03.936Z,68.53
2022-10-20T05:26:34.833Z,67.36
2022-10-20T05:29:04.114Z,67.74
2022-10-20T05:31:30.733Z,68.10
2022-10-20T05:33:57.906Z,68.32
2022-10-20T05:36:26.647Z,68.64
2022-10-20T05:38:55.019Z,69.90
2022-10-20T05:41:24.882Z,69.34
2022-10-20T05:43:59.710Z,70.34
2022-10-20T05:46:29.067Z,69.43
2022-10-20T05:48:58.454Z,68.67
2022-10-20T05:51:29.063Z,69.12
2022-10-20T05:53:57.347Z,69.63
2022-10-20T05:56:25.538Z,68.01
2022-10-20T05:58:52.259Z,67.72
2022-10-20T06:01:24.508Z,68.26
2022-10-20T06:03:55.386Z,67.82
2022-10-20T06:06:24.344Z,67.08
2022-10-20T06:08:51.248Z,67.02
2022-10-20T06:11:19.009Z,67.13
2022-10-20T06:13:48.493Z,66.97
2022-10-20T06:16:24.552Z,67.24
2022-10-20T06:18:52.147Z,67.42
2022-10-20T06:21:21.776Z,67.70
2022-10-20T06:23:49.030Z,68.24
2022-10-20T06:26:25.034Z,67.86
2022-10-20T06:28:56.701Z,67.75
2022-10-20T06:31:35.338Z,68.49
2022-10-20T06:34:05.218Z,67.69
2022-10-20T06:36:35.879Z,67.86
2022-10-20T06:39:04.620Z,67.46
2022-10-20T06:41:31.568Z,67.91
2022-10-20T06:43:59.709Z,67.13
2022-10-20T06:46:28.772Z,67.17
2022-10-20T06:48:58.601Z,67.13
2022-10-20T06:51:25.793Z,67.29
2022-10-20T06:53:52.768Z,66.83
2022-10-20T06:56:29.014Z,67.34
2022-10-20T06:58:57.315Z,68.09
2022-10-20T07:01:29.178Z,67.31
2022-10-20T07:03:58.771Z,68.01
2022-10-20T07:06:34.359Z,66.70
2022-10-20T07:09:04.056Z,65.85
2022-10-20T07:11:32.374Z,62.97
2022-10-20T07:14:00.264Z,63.04
2022-10-20T07:16:29.743Z,62.14
2022-10-20T07:18:57.373Z,63.77
2022-10-20T07:21:30.752Z,64.04
2022-10-20T07:24:01.782Z,64.78
2022-10-20T07:26:30.669Z,65.82
2022-10-20T07:28:59.615Z,65.93
2022-10-20T07:31:28.087Z,65.81
2022-10-20T07:34:07.082Z,67.28
2022-10-20T07:36:44.145Z,65.34
2022-10-20T07:39:12.763Z,65.66
2022-10-20T07:41:40.146Z,63.73
2022-10-20T07:44:07.603Z,64.11
2022-10-20T07:46:34.322Z,65.05
2022-10-20T07:49:24.010Z,64.08
2022-10-20T07:51:47.893Z,64.47
2022-10-20T07:54:14.517Z,64.40
2022-10-20T07:56:42.868Z,63.91
2022-10-20T07:59:11.425Z,64.15
2022-10-20T08:01:38.377Z,61.60
2022-10-20T08:04:05.292Z,60.76
2022-10-20T08:06:32.103Z,60.22
2022-10-20T08:08:58.849Z,61.71
2022-10-20T08:11:26.593Z,62.79
2022-10-20T08:13:53.121Z,64.29
2022-10-20T08:16:21.077Z,64.91
2022-10-20T08:18:49.642Z,64.72
2022-10-20T08:21:18.850Z,64.44
2022-10-20T08:23:47.888Z,63.32
2022-10-20T08:26:22.622Z,64.46
2022-10-20T08:28:51.800Z,65.03
2022-10-20T08:31:18.545Z,65.13
2022-10-20T08:33:48.812Z,65.05
2022-10-20T08:36:18.164Z,64.67
2022-10-20T08:38:44.810Z,64.58
2022-10-20T08:41:38.747Z,65.43
2022-10-20T08:44:25.260Z,64.17
2022-10-20T08:46:52.363Z,64.49
2022-10-20T08:49:25.923Z,64.56
2022-10-20T08:51:52.671Z,65.06
2022-10-20T08:54:19.401Z,63.03
2022-10-20T08:56:46.755Z,63.94
2022-10-20T08:59:30.070Z,64.59
2022-10-20T09:01:57.886Z,63.91
2022-10-20T09:04:56.246Z,64.21
2022-10-20T09:07:34.399Z,64.92
2022-10-20T09:10:24.607Z,64.69
2022-10-20T09:12:52.170Z,65.02
2022-10-20T09:15:21.139Z,63.66
2022-10-20T09:17:55.567Z,62.94
2022-10-20T09:20:26.231Z,62.79
2022-10-20T09:22:52.949Z,63.38
2022-10-20T09:25:24.074Z,63.24
2022-10-20T09:27:52.010Z,62.44
2022-10-20T09:30:23.133Z,61.46
2022-10-20T09:32:50.528Z,60.92
2022-10-20T09:35:35.992Z,60.28
2022-10-20T09:38:29.760Z,58.92
2022-10-20T09:41:02.584Z,60.15
2022-10-20T09:43:29.389Z,59.88
2022-10-20T09:46:04.837Z,59.11
2022-10-20T09:48:36.706Z,58.74
2022-10-20T09:51:06.441Z,56.29
2022-10-20T09:53:49.018Z,56.62
2022-10-20T09:56:27.017Z,58.04
2022-10-20T09:58:55.346Z,57.06
2022-10-20T10:01:22.579Z,58.48
2022-10-20T10:03:56.813Z,55.29
2022-10-20T10:06:26.383Z,55.95
2022-10-20T10:08:53.022Z,56.73
2022-10-20T10:11:22.498Z,56.92
2022-10-20T10:13:51.710Z,57.49
2022-10-20T10:16:21.788Z,56.03
2022-10-20T10:18:59.837Z,54.27
2022-10-20T10:21:27.645Z,54.96
2022-10-20T10:24:01.047Z,54.09
2022-10-20T10:26:53.130Z,52.99
2022-10-20T10:29:32.879Z,54.10
2022-10-20T10:32:02.119Z,53.72
2022-10-20T10:34:56.927Z,51.99
2022-10-20T10:37:23.932Z,52.00
2022-10-20T10:39:50.598Z,52.71
2022-10-20T10:42:39.498Z,51.98
2022-10-20T10:45:12.408Z,51.56
2022-10-20T10:48:06.379Z,52.80
2022-10-20T10:50:53.092Z,51.27
2022-10-20T10:53:32.116Z,51.42
2022-10-20T10:56:21.184Z,52.09
2022-10-20T10:59:11.657Z,50.66
2022-10-20T11:02:01.247Z,52.45
2022-10-20T11:05:05.072Z,50.51
2022-10-20T11:07:54.759Z,52.20
2022-10-20T11:10:32.852Z,51.36
2022-10-20T11:13:26.054Z,50.76
2022-10-20T11:16:12.767Z,50.68
2022-10-20T11:19:02.054Z,50.12
2022-10-20T11:21:37.579Z,51.17
2022-10-20T11:24:22.316Z,50.47
2022-10-20T11:26:54.579Z,51.14
2022-10-20T11:29:38.057Z,50.40
2022-10-20T11:32:29.148Z,49.11
2022-10-20T11:35:14.298Z,48.56
2022-10-20T11:37:56.246Z,48.83
2022-10-20T11:40:38.836Z,48.52
2022-10-20T11:43:50.705Z,47.74
2022-10-20T11:46:48.979Z,49.69
2022-10-20T11:49:16.020Z,48.35
2022-10-20T11:52:19.763Z,49.08
2022-10-20T11:55:19.048Z,50.00
2022-10-20T11:58:21.250Z,51.46
2022-10-20T12:01:18.217Z,51.72
2022-10-20T12:03:44.786Z,50.96
2022-10-20T12:06:14.219Z,51.83
2022-10-20T12:08:56.955Z,50.66
2022-10-20T12:11:35.722Z,51.11
2022-10-20T12:14:24.076Z,51.58
2022-10-20T12:16:53.889Z,52.92
2022-10-20T12:19:23.588Z,52.48
2022-10-20T12:21:53.804Z,53.68
2022-10-20T12:24:41.094Z,51.19
2022-10-20T12:27:10.659Z,52.67
2022-10-20T12:29:37.208Z,52.02
2022-10-20T12:32:21.997Z,52.45
2022-10-20T12:34:56.845Z,52.14
2022-10-20T12:37:29.087Z,52.24
2022-10-20T12:40:17.236Z,50.57
2022-10-20T12:42:49.662Z,50.65
2022-10-20T12:45:36.516Z,51.39
2022-10-20T12:48:06.625Z,50.52
2022-10-20T12:50:45.652Z,51.24
2022-10-20T12:53:27.083Z,51.63
2022-10-20T12:55:58.210Z,51.14
2022-10-20T12:58:28.408Z,49.86
2022-10-20T13:00:56.787Z,49.53
2022-10-20T13:03:32.342Z,47.98
2022-10-20T13:05:59.827Z,49.40
2022-10-20T13:08:28.040Z,48.58
2022-10-20T13:10:55.300Z,48.67
2022-10-20T13:13:21.855Z,49.45
2022-10-20T13:15:52.480Z,49.93
2022-10-20T13:18:29.145Z,50.40
2022-10-20T13:21:06.912Z,50.63
2022-10-20T13:23:40.073Z,51.20
2022-10-20T13:26:24.456Z,50.85
2022-10-20T13:28:56.956Z,51.42
2022-10-20T13:31:32.733Z,51.63
2022-10-20T13:34:14.449Z,52.16
2022-10-20T13:36:56.020Z,50.46
2022-10-20T13:39:41.069Z,51.51
2022-10-20T13:42:26.570Z,50.89
2022-10-20T13:45:17.892Z,49.94
2022-10-20T13:47:49.466Z,52.35
2022-10-20T13:52:49.841Z,53.95
2022-10-20T13:55:23.078Z,53.81
2022-10-20T13:58:17.283Z,53.14
2022-10-20T14:01:04.702Z,53.76
2022-10-20T14:03:36.340Z,54.46
2022-10-20T14:06:03.192Z,55.99
2022-10-20T14:08:29.999Z,55.35
2022-10-20T14:11:06.775Z,55.71
2022-10-20T14:13:35.998Z,55.09
2022-10-20T14:16:05.861Z,55.01
2022-10-20T14:18:39.541Z,54.95
2022-10-20T14:21:19.790Z,55.01
2022-10-20T14:23:49.297Z,55.17
2022-10-20T14:26:21.519Z,55.15
2022-10-20T14:28:53.059Z,55.77
2022-10-20T14:31:24.258Z,54.85
2022-10-20T14:33:52.545Z,55.45
2022-10-20T14:39:01.283Z,54.11
2022-10-20T14:41:34.696Z,53.47
2022-10-20T14:44:13.635Z,53.36
2022-10-20T14:46:47.711Z,54.04
2022-10-20T14:49:38.056Z,54.47
2022-10-20T14:52:26.740Z,54.88
2022-10-20T14:54:53.378Z,53.70
2022-10-20T14:57:19.905Z,55.72
2022-10-20T14:59:49.610Z,55.41
2022-10-20T15:02:20.459Z,55.46
2022-10-20T15:04:49.125Z,55.10
2022-10-20T15:07:15.641Z,54.24
2022-10-20T15:09:45.710Z,53.91
2022-10-20T15:12:20.116Z,53.14
2022-10-20T15:14:53.246Z,54.10
2022-10-20T15:18:12.286Z,54.09
2022-10-20T15:20:39.940Z,54.52
2022-10-20T15:23:10.740Z,54.13
2022-10-20T15:25:56.199Z,55.33
2022-10-20T15:28:35.030Z,54.47
2022-10-20T15:31:04.573Z,54.94
2022-10-20T15:33:31.547Z,54.08
2022-10-20T15:36:00.508Z,54.67
2022-10-20T15:38:27.117Z,55.42
2022-10-20T15:40:53.778Z,55.01
2022-10-20T15:43:20.408Z,55.75
2022-10-20T15:45:55.370Z,55.96
2022-10-20T15:48:25.879Z,55.85
2022-10-20T15:50:54.274Z,55.46
2022-10-20T15:53:20.988Z,54.43
2022-10-20T15:55:47.912Z,54.80
2022-10-20T15:58:14.488Z,54.11
2022-10-20T16:00:41.326Z,55.20
2022-10-20T16:03:15.519Z,54.92
2022-10-20T16:05:42.216Z,55.22
2022-10-20T16:08:09.031Z,54.64
2022-10-20T16:10:35.826Z,54.00
2022-10-20T16:13:03.404Z,54.01
2022-10-20T16:15:31.216Z,55.43
2022-10-20T16:17:58.527Z,54.85
2022-10-20T16:20:25.316Z,55.21
2022-10-20T16:22:51.878Z,55.08
2022-10-20T16:25:18.620Z,55.13
2022-10-20T16:27:45.265Z,55.21
2022-10-20T16:30:12.049Z,55.05
2022-10-20T16:32:38.892Z,55.46
2022-10-20T16:35:06.406Z,55.30
2022-10-20T16:37:33.306Z,56.47
2022-10-20T16:40:00.037Z,55.67
2022-10-20T16:42:28.342Z,55.85
2022-10-20T16:44:54.995Z,55.88
2022-10-20T16:47:21.624Z,56.06
2022-10-20T16:49:48.276Z,57.71
2022-10-20T16:52:14.856Z,57.96
2022-10-20T16:57:13.740Z,56.75
2022-10-20T16:59:41.286Z,57.09
2022-10-20T17:02:07.928Z,56.67
2022-10-20T17:04:34.594Z,56.60
2022-10-20T17:07:01.206Z,57.41
2022-10-20T17:09:29.974Z,56.38
2022-10-20T17:11:57.124Z,57.62
2022-10-20T17:14:23.746Z,57.38
2022-10-20T17:16:50.464Z,57.40
2022-10-20T17:19:17.192Z,56.93
2022-10-20T17:21:43.865Z,56.49
2022-10-20T17:24:12.584Z,57.26
2022-10-20T17:26:40.888Z,57.14
2022-10-20T17:29:09.529Z,56.33
2022-10-20T17:31:37.190Z,56.97
2022-10-20T17:34:04.846Z,56.40
2022-10-20T17:36:32.297Z,57.04
2022-10-20T17:39:07.092Z,57.03
2022-10-20T17:41:33.795Z,55.78
2022-10-20T17:44:02.084Z,55.89
2022-10-20T17:46:28.862Z,56.88
2022-10-20T17:48:55.486Z,57.47
2022-10-20T17:51:26.814Z,58.30
2022-10-20T17:53:57.997Z,57.08
2022-10-20T17:56:32.928Z,57.25
2022-10-20T17:59:00.691Z,57.95
2022-10-20T18:01:33.304Z,58.35
2022-10-20T18:04:02.806Z,57.32
2022-10-20T18:06:34.115Z,57.49
2022-10-20T18:09:05.546Z,57.64
2022-10-20T18:11:34.078Z,57.65
2022-10-20T18:14:01.643Z,57.77
2022-10-20T18:16:30.531Z,56.85
2022-10-20T18:21:30.727Z,57.37
2022-10-20T18:24:06.300Z,56.58
2022-10-20T18:26:36.104Z,57.66
2022-10-20T18:29:04.550Z,57.19
2022-10-20T18:31:32.755Z,57.15
2022-10-20T18:34:05.655Z,58.25
2022-10-20T18:36:36.898Z,57.23
2022-10-20T18:39:07.209Z,57.13
2022-10-20T18:41:38.026Z,56.80
2022-10-20T18:44:10.843Z,57.03
2022-10-20T18:46:40.886Z,57.02
2022-10-20T18:49:08.689Z,56.74
2022-10-20T18:51:36.211Z,57.18
2022-10-20T18:54:03.855Z,57.03
2022-10-20T18:56:30.894Z,57.27
2022-10-20T18:59:04.803Z,56.62
2022-10-20T19:01:34.000Z,56.86
2022-10-20T19:04:01.402Z,57.77
2022-10-20T19:06:35.014Z,58.09
2022-10-20T19:09:04.730Z,57.05
2022-10-20T19:11:33.281Z,57.37
2022-10-20T19:14:00.357Z,57.45
2022-10-20T19:16:29.376Z,57.97
2022-10-20T19:18:58.297Z,57.52
2022-10-20T19:21:26.445Z,56.88
2022-10-20T19:24:00.895Z,56.99
2022-10-20T19:26:32.460Z,57.97
2022-10-20T19:29:04.989Z,59.08
2022-10-20T19:31:40.192Z,58.44
2022-10-20T19:34:15.128Z,58.59
2022-10-20T19:36:43.172Z,59.79
2022-10-20T19:39:11.483Z,59.82
2022-10-20T19:41:38.490Z,60.19
2022-10-20T19:44:15.598Z,60.42
2022-10-20T19:46:47.901Z,59.94
2022-10-20T19:49:15.178Z,60.84
2022-10-20T19:51:42.528Z,62.07
2022-10-20T19:54:09.751Z,62.99
2022-10-20T19:56:37.117Z,63.67
2022-10-20T19:59:04.842Z,63.66
2022-10-20T20:01:32.342Z,63.29
2022-10-20T20:03:59.762Z,62.65
2022-10-20T20:06:26.605Z,62.13
2022-10-20T20:08:59.047Z,65.18
2022-10-20T20:11:29.608Z,63.91
2022-10-20T20:14:04.281Z,63.76
2022-10-20T20:16:31.038Z,63.72
2022-10-20T20:18:58.515Z,63.61
2022-10-20T20:21:25.780Z,63.56
2022-10-20T20:24:01.208Z,64.44
2022-10-20T20:26:30.412Z,64.04
2022-10-20T20:28:58.159Z,65.07
2022-10-20T20:31:25.827Z,64.03
2022-10-20T20:33:53.260Z,64.14
2022-10-20T20:36:19.992Z,63.32
2022-10-20T20:38:46.833Z,64.14
2022-10-20T20:41:16.965Z,65.18
2022-10-20T20:43:46.990Z,65.91
2022-10-20T20:46:19.685Z,66.20
2022-10-20T20:48:46.649Z,65.97
2022-10-20T20:51:14.207Z,65.29
2022-10-20T20:53:40.871Z,64.48
2022-10-20T20:56:10.383Z,65.28
2022-10-20T20:58:37.101Z,66.34
2022-10-20T21:01:10.771Z,67.05
2022-10-20T21:03:37.849Z,67.54
2022-10-20T21:06:06.024Z,66.98
2022-10-20T21:08:33.943Z,66.68
2022-10-20T21:11:21.768Z,66.22
2022-10-20T21:13:50.166Z,65.62
2022-10-20T21:16:19.705Z,66.46
2022-10-20T21:18:49.714Z,66.75
2022-10-20T21:21:18.986Z,66.44
2022-10-20T21:23:45.804Z,66.76
2022-10-20T21:26:14.488Z,66.35
2022-10-20T21:28:42.481Z,66.45
2022-10-20T21:31:12.324Z,66.27
2022-10-20T21:33:40.037Z,67.33
2022-10-20T21:36:15.341Z,66.57
2022-10-20T21:38:42.900Z,66.24
2022-10-20T21:41:10.775Z,66.77
2022-10-20T21:43:39.033Z,66.62
2022-10-20T21:46:17.178Z,65.91
2022-10-20T21:48:44.464Z,65.08
2022-10-20T21:51:25.872Z,66.43
2022-10-20T21:53:56.941Z,66.14
2022-10-20T21:56:24.690Z,67.72
2022-10-20T21:58:51.829Z,67.53
2022-10-20T22:01:23.638Z,66.90
2022-10-20T22:03:51.797Z,67.81
2022-10-20T22:06:20.301Z,67.91
2022-10-20T22:08:49.875Z,68.70
2022-10-20T22:11:19.725Z,68.60
2022-10-20T22:13:47.710Z,68.16
2022-10-20T22:16:17.483Z,68.52
2022-10-20T22:18:44.728Z,68.63
2022-10-20T22:21:14.027Z,68.45
2022-10-20T22:23:41.706Z,66.87
2022-10-20T22:26:09.118Z,67.69
2022-10-20T22:28:36.224Z,67.99
2022-10-20T22:31:03.311Z,67.99
2022-10-20T22:33:29.957Z,68.94
2022-10-20T22:35:56.523Z,70.03
2022-10-20T22:38:23.288Z,70.35
2022-10-20T22:40:50.031Z,70.35
2022-10-20T22:43:16.648Z,70.37
2022-10-20T22:45:43.320Z,70.09
2022-10-20T22:48:09.993Z,69.73
2022-10-20T22:50:36.592Z,69.39
2022-10-20T22:53:03.357Z,67.86
2022-10-20T22:55:29.910Z,68.78
2022-10-20T22:57:56.539Z,69.22
2022-10-20T23:00:23.164Z,69.51
2022-10-20T23:02:49.813Z,69.18
2022-10-20T23:05:16.457Z,69.00
2022-10-20T23:07:43.141Z,68.91
2022-10-20T23:10:09.970Z,68.39
2022-10-20T23:12:36.961Z,68.22
2022-10-20T23:15:05.198Z,69.02
2022-10-20T23:17:31.888Z,68.78
2022-10-20T23:19:58.499Z,68.21
2022-10-20T23:22:25.248Z,68.38
2022-10-20T23:24:51.831Z,67.82
2022-10-20T23:27:18.486Z,67.20
2022-10-20T23:29:45.164Z,66.84
2022-10-20T23:32:11.822Z,67.23
2022-10-20T23:34:38.414Z,68.50
2022-10-20T23:37:05.173Z,67.96
2022-10-20T23:39:31.719Z,67.33
2022-10-20T23:41:59.075Z,67.39
2022-10-20T23:44:27.054Z,67.33
2022-10-20T23:46:53.733Z,66.39
2022-10-20T23:49:20.309Z,66.81
2022-10-20T23:51:46.965Z,68.03
2022-10-20T23:54:13.583Z,68.27
2022-10-20T23:56:40.204Z,67.92
2022-10-20T23:59:06.795Z,66.66
